Meteo Giornale » Osservazioni meteo Italia » Aosta

ore: 12:20 - Osservazioni Meteo Aosta
Lat. 45° 44' N Lon. 7° 22' E Alt. 546 metri s.l.m.

sereno Europe/Rome

24 °C

Sereno

Temp. 24 Ore

14 °C

29 °C

Nord

5.5 Km/h

Dew point 14 °C

Umidità 53 %

Visibilità  10 Km

Il sole sorge alle ore 05:55

Il sole tramonta alle ore 21:18

Data e Ora Cielo e Fenomeni T °C DP °C Um. % Pres. hPa Vis. km Vento km/h
Oggi h: 12:20 sereno Sereno 24 14 53 1013 10 N 5.5
Oggi h: 11:50 sereno Sereno 24 16 60 1013 10 S/SE 9.3
Oggi h: 11:20 sereno Sereno 23 13 53 1014 10 E 9.3
Oggi h: 10:50 sereno Sereno 23 12 49 1014 10 E 9.3
Oggi h: 10:20 sereno Sereno 22 11 49 1015 10 N 5.5
Oggi h: 09:50 sereno Sereno 22 10 46 1015 10 N 5.5
Oggi h: 09:20 sereno Sereno 21 10 49 1015 10 N 0
Oggi h: 08:50 sereno Sereno 20 10 52 1015 10 N 3.7
Oggi h: 08:20 sereno Sereno 19 10 55 1015 10 N 3.7
Oggi h: 07:50 sereno Sereno 17 12 72 1015 10 N 3.7
Oggi h: 07:20 sereno Sereno 16 11 72 1016 10 N 3.7
Oggi h: 06:50 sereno Sereno 14 11 82 1016 10 N 5.5
Oggi h: 06:20 sereno Sereno 15 10 72 1016 10 N 1.8
Oggi h: 05:50 sereno Sereno 15 11 76 1016 10 N 1.8
Ieri h: 21:50 poco_nuvoloso Poco Nuvoloso 24 9 38 1015 10 O/NO 13
Ieri h: 21:20 coperto Coperto 25 9 36 1015 10 NO 16.7
Ieri h: 20:20 sereno Sereno 25 16 57 1014 10 N 5.5
Ieri h: 19:50 poco_nuvoloso Poco Nuvoloso 25 16 57 1014 10 E 13
Ieri h: 19:20 sereno Sereno 26 16 54 1014 10 E 16.7
Ieri h: 18:50 sereno Sereno 27 13 42 1013 10 E 13
Ieri h: 18:20 sereno Sereno 28 13 39 1014 10 E/SE 16.7
Ieri h: 17:50 sereno Sereno 29 13 37 1014 10 E/SE 14.8
Ieri h: 17:20 sereno Sereno 29 12 35 1014 10 O/SO 11.1
Ieri h: 16:50 nuvoloso Nuvoloso 29 11 32 1014 10 S/SO 18.5
Ieri h: 16:20 poco_nuvoloso Poco Nuvoloso 29 13 37 1014 10 N 5.5
Ieri h: 15:50 poco_nuvoloso Poco Nuvoloso 29 15 42 1014 10 E 16.7
Ieri h: 15:20 poco_nuvoloso Poco Nuvoloso 28 15 45 1014 10 E 11.1
Ieri h: 14:50 sereno Sereno 27 14 44 1015 10 E 11.1
Ieri h: 14:20 sereno Sereno 26 13 44 1016 10 N 5.5
Ieri h: 13:50 nuvoloso Nuvoloso 25 13 47 1016 10 E 7.4
Ieri h: 13:20 nuvoloso Nuvoloso 25 14 50 1016 10 E 9.3
Ieri h: 12:50 poco_nuvoloso Poco Nuvoloso 24 13 50 1016 10 E 11.1